Date,TemperatureHighF,TemperatureAvgF,TemperatureLowF,DewpointHighF,DewpointAvgF,DewpointLowF,HumidityHigh,HumidityAvg,HumidityLow,PressureMaxIn,PressureMinIn,WindSpeedMaxMPH,WindSpeedAvgMPH,GustSpeedMaxMPH,PrecipitationSumIn
2013-1-1,52,44,33,29,20,11,73,42,20,28.52,28.42,25,4,25,0.01
2013-1-2,58,53,48,16,13,11,23,19,16,28.49,28.37,26,5,26,0.00
2013-1-3,59,52,46,16,11,4,26,18,11,28.52,28.40,21,4,22,0.00
2013-1-4,61,49,39,16,10,4,36,19,11,28.59,28.47,12,1,13,0.00
2013-1-5,62,48,37,24,16,11,46,28,14,28.60,28.46,6,0,6,0.00
2013-1-6,51,44,39,42,37,21,94,77,39,28.47,28.32,10,1,11,0.01
2013-1-7,61,49,39,37,27,18,82,47,18,28.42,28.33,17,2,17,0.00
2013-1-8,70,58,44,32,26,21,40,30,21,28.46,28.36,20,2,20,0.00
2013-1-9,67,57,48,46,35,29,90,46,29,28.45,28.28,10,1,10,0.00
2013-1-10,48,44,36,44,30,21,88,61,33,28.38,28.22,24,4,24,0.00
2013-1-11,45,39,32,26,22,18,61,49,33,28.47,28.35,20,4,20,0.00
2013-1-12,50,38,30,23,18,11,65,45,20,28.45,28.35,10,1,11,0.00
2013-1-13,49,38,30,21,16,8,57,40,24,28.46,28.32,15,1,16,0.00
2013-1-14,44,38,32,8,2,0,28,19,13,28.62,28.44,26,5,26,0.00
2013-1-15,54,44,34,18,11,0,31,24,19,28.74,28.62,22,3,22,0.00
2013-1-16,62,55,45,23,19,16,32,24,18,28.67,28.51,28,5,28,0.00
2013-1-17,66,61,57,16,11,8,18,13,9,28.56,28.43,33,6,36,0.02
2013-1-18,66,60,54,14,11,8,17,14,10,28.53,28.42,24,6,25,0.00
2013-1-19,68,61,54,11,9,4,17,12,8,28.54,28.44,25,6,25,0.00
2013-1-20,68,60,53,11,7,4,15,11,8,28.51,28.38,20,4,20,0.00
2013-1-21,71,61,51,8,4,-6,17,10,5,28.46,28.39,23,4,23,0.00
2013-1-22,71,59,48,14,8,0,21,13,7,28.46,28.37,15,2,15,0.00
2013-1-23,73,60,51,43,23,11,71,25,14,28.45,28.35,8,0,8,0.02
2013-1-24,58,52,48,55,50,42,99,93,72,28.51,28.41,7,0,7,0.61
2013-1-25,56,54,52,52,50,45,96,85,67,28.49,28.31,14,2,14,0.18
2013-1-26,67,57,52,54,52,49,98,83,56,28.31,28.21,8,1,9,0.08
2013-1-27,54,48,38,51,38,26,99,69,42,28.33,28.26,16,3,16,0.02
2013-1-28,50,43,34,31,28,24,79,55,35,28.49,28.33,24,3,24,0.00
2013-1-29,59,46,36,35,30,26,70,55,33,28.52,28.42,15,2,15,0.00
2013-1-30,69,52,40,39,35,31,77,55,28,28.64,28.51,6,1,7,0.00
2013-1-31,71,57,44,37,33,31,67,42,23,28.57,28.44,20,2,20,0.00
2013-2-1,73,59,46,41,35,31,58,42,25,28.52,28.43,8,1,8,0.00
2013-2-2,70,60,52,48,36,31,82,44,24,28.55,28.46,16,2,16,0.02
2013-2-3,73,59,49,47,37,24,83,48,18,28.50,28.33,14,2,14,0.00
2013-2-4,74,58,46,47,31,21,64,39,13,28.41,28.29,12,1,12,0.00
2013-2-5,62,51,44,48,40,28,95,66,44,28.38,28.27,10,1,10,0.00
2013-2-6,66,51,40,47,41,32,96,73,35,28.41,28.30,8,1,8,0.00
2013-2-7,58,48,37,47,39,29,84,72,61,28.43,28.26,13,1,14,0.00
2013-2-8,49,41,34,40,36,32,96,82,54,28.26,28.16,12,1,13,0.10
2013-2-9,54,42,32,35,32,26,95,68,40,28.38,28.22,9,1,9,0.00
2013-2-10,54,42,32,38,35,29,88,74,51,28.39,28.29,8,1,8,0.00
2013-2-11,56,44,32,35,21,8,93,48,15,28.53,28.35,20,2,22,0.00
2013-2-12,62,46,33,29,19,11,52,34,14,28.64,28.51,11,1,11,0.00
2013-2-13,70,53,37,36,23,16,57,34,12,28.58,28.42,14,1,14,0.00
2013-2-14,70,58,42,28,24,21,54,28,15,28.51,28.40,23,3,23,0.00
2013-2-15,71,64,55,24,19,14,30,19,12,28.56,28.48,26,5,26,0.00
2013-2-16,74,64,51,23,16,14,26,16,10,28.52,28.31,16,3,16,0.00
2013-2-17,69,55,43,48,30,16,89,43,19,28.32,28.21,9,1,9,0.00
2013-2-18,62,49,40,44,41,36,89,74,45,28.36,28.24,12,2,12,0.00
2013-2-19,51,46,39,43,40,37,94,80,65,28.27,28.00,9,1,10,0.10
2013-2-20,51,42,34,38,29,23,95,61,33,28.29,27.99,33,5,33,0.01
2013-2-21,56,44,33,33,27,16,75,54,21,28.41,28.28,20,2,20,0.00
2013-2-22,65,48,34,31,27,23,72,47,21,28.50,28.40,13,1,13,0.00
2013-2-23,66,50,38,35,30,26,64,46,30,28.46,28.23,19,3,19,0.00
2013-2-24,59,51,43,31,8,0,48,18,9,28.51,28.34,29,6,30,0.00
2013-2-25,68,50,37,28,16,8,42,26,13,28.53,28.37,9,1,9,0.00
2013-2-26,66,54,41,26,17,11,46,25,11,28.47,28.33,22,4,23,0.00
2013-2-27,65,56,45,14,10,8,26,16,10,28.62,28.47,21,4,21,0.00
2013-2-28,72,60,47,18,9,4,24,13,7,28.67,28.57,17,3,17,0.00
2013-3-1,78,65,51,21,17,14,25,16,9,28.67,28.50,21,4,22,0.00
2013-3-2,81,65,51,33,24,18,33,21,11,28.58,28.41,11,1,11,0.00
2013-3-3,71,60,49,47,34,23,87,40,24,28.45,28.27,12,1,12,0.00
2013-3-4,70,56,45,48,43,38,87,64,43,28.42,28.31,9,1,9,0.00
2013-3-5,64,52,43,50,45,41,95,79,52,28.41,28.31,12,1,12,0.00
2013-3-6,58,50,44,46,42,40,94,76,56,28.44,28.30,11,2,11,0.01
2013-3-7,56,49,44,48,42,36,97,80,48,28.30,28.14,10,1,11,0.25
2013-3-8,51,45,37,43,40,36,97,85,63,28.32,28.08,13,1,13,0.59
2013-3-9,60,50,42,43,37,31,97,66,33,28.54,28.31,22,2,22,0.00
2013-3-10,71,57,40,35,22,11,75,33,10,28.60,28.47,20,3,20,0.00
2013-3-11,78,60,45,37,26,16,44,28,12,28.52,28.36,9,1,9,0.00
2013-3-12,84,65,48,39,29,18,47,29,10,28.45,28.33,14,1,14,0.00
2013-3-13,89,69,53,38,31,21,42,27,9,28.48,28.36,9,1,9,0.00
2013-3-14,90,71,56,41,34,28,41,27,11,28.44,28.34,9,1,10,0.00
2013-3-15,83,69,57,45,38,32,49,34,18,28.38,28.26,10,1,11,0.00
2013-3-16,80,67,53,39,32,24,49,29,13,28.30,28.19,22,3,22,0.00
2013-3-17,80,65,56,45,35,23,46,33,14,28.31,28.22,14,2,15,0.00
2013-3-18,70,56,45,49,39,24,89,54,32,28.40,28.28,10,1,10,0.00
2013-3-19,76,60,46,49,44,36,93,61,29,28.42,28.32,11,1,11,0.00
2013-3-20,73,62,51,49,44,37,79,55,35,28.41,28.29,13,1,13,0.00
2013-3-21,78,63,55,48,39,24,61,43,25,28.30,28.13,20,3,21,0.00
2013-3-22,75,59,45,38,28,11,66,34,9,28.27,28.14,27,4,27,0.00
2013-3-23,78,60,46,43,27,8,59,31,7,28.34,28.23,16,2,17,0.00
2013-3-24,81,63,48,39,28,16,50,29,10,28.35,28.21,13,2,14,0.00
2013-3-25,78,62,49,41,33,26,57,35,19,28.31,28.21,11,1,11,0.00
2013-3-26,74,60,47,46,41,36,78,51,30,28.28,28.20,11,1,11,0.00
2013-3-27,72,57,47,49,46,40,82,67,41,28.36,28.24,10,1,12,0.00
2013-3-28,77,59,47,50,46,43,90,66,32,28.40,28.32,14,1,14,0.00
2013-3-29,80,64,51,49,44,37,76,52,24,28.42,28.34,10,1,10,0.00
2013-3-30,77,62,51,51,43,31,90,55,19,28.43,28.34,10,1,11,0.00
2013-3-31,64,56,50,54,49,41,90,79,61,28.44,28.36,10,1,10,0.02
2013-4-1,66,55,48,49,47,45,94,77,49,28.47,28.38,12,1,12,0.00
2013-4-2,78,60,46,50,46,42,93,62,35,28.40,28.29,10,1,10,0.00
2013-4-3,81,65,50,50,41,33,77,45,19,28.40,28.31,13,1,13,0.00
2013-4-4,78,61,50,51,47,40,93,63,27,28.43,28.30,12,1,12,0.00
2013-4-5,75,61,49,53,46,35,97,63,35,28.39,28.30,22,2,22,0.00
2013-4-6,76,63,50,45,39,33,66,43,23,28.39,28.28,18,4,18,0.00
2013-4-7,76,63,53,44,37,29,61,40,18,28.31,28.13,24,3,24,0.00
2013-4-8,58,54,51,50,37,28,91,55,38,28.17,28.01,34,5,47,0.00
2013-4-9,71,59,46,29,24,16,53,28,14,28.36,28.17,18,3,22,0.00
2013-4-10,82,66,51,28,20,11,34,19,7,28.45,28.30,15,2,15,0.00
2013-4-11,78,64,50,49,36,24,75,38,21,28.33,28.10,14,1,14,0.00
2013-4-12,83,64,47,50,48,43,92,60,31,28.20,28.09,12,1,12,0.00
2013-4-13,68,58,48,54,50,44,86,74,57,28.21,28.13,14,2,14,0.00
2013-4-14,68,57,51,50,49,48,93,77,50,28.19,28.11,14,1,14,0.00
2013-4-15,62,55,48,49,47,43,89,76,58,28.20,28.14,11,1,13,0.00
2013-4-16,61,52,46,44,30,21,84,45,22,28.33,28.16,24,4,25,0.00
2013-4-17,66,56,45,28,21,16,45,27,14,28.49,28.33,22,3,23,0.00
2013-4-18,72,60,47,23,14,4,35,18,7,28.56,28.45,19,3,20,0.00
2013-4-19,85,67,49,29,19,11,31,17,6,28.52,28.32,19,2,19,0.00
2013-4-20,91,72,55,38,30,18,37,23,8,28.35,28.21,15,2,15,0.00
2013-4-21,87,70,56,42,35,29,51,29,15,28.34,28.26,11,1,11,0.00
2013-4-22,81,64,51,49,43,33,83,48,29,28.33,28.19,14,1,14,0.00
2013-4-23,84,64,48,51,45,21,97,60,10,28.29,28.17,17,1,17,0.00
2013-4-24,64,56,52,54,51,48,93,82,66,28.31,28.22,10,1,12,0.00
2013-4-25,73,60,52,49,47,43,86,64,38,28.44,28.27,11,1,11,0.00
2013-4-26,82,63,47,49,46,41,84,57,31,28.48,28.39,12,1,13,0.00
2013-4-27,90,72,53,50,43,36,69,39,16,28.48,28.32,11,1,12,0.00
2013-4-28,90,74,59,53,44,33,54,36,24,28.35,28.18,11,1,11,0.00
2013-4-29,86,68,50,54,49,41,93,55,27,28.22,28.10,13,1,13,0.00
2013-4-30,73,60,52,54,52,50,96,75,49,28.22,28.12,12,1,13,0.00
2013-5-1,86,70,52,54,24,-6,92,39,3,28.42,28.22,24,2,25,0.00
2013-5-2,83,74,65,16,-2,-13,13,5,2,28.54,28.39,28,5,28,0.00
2013-5-3,93,76,59,21,8,-6,15,7,3,28.41,28.16,11,1,11,0.00
2013-5-4,78,66,56,52,36,14,78,37,13,28.17,28.06,13,1,15,0.00
2013-5-5,60,56,53,50,48,46,88,78,62,28.26,28.14,11,1,11,0.00
2013-5-6,66,56,51,54,49,44,96,80,48,28.34,28.20,12,1,12,0.42
2013-5-7,68,58,50,50,48,44,94,72,47,28.38,28.30,9,1,10,0.02
2013-5-8,72,60,52,50,47,45,86,65,41,28.42,28.36,10,1,11,0.00
2013-5-9,76,62,48,54,49,44,87,65,43,28.42,28.33,10,1,10,0.00
2013-5-10,88,72,54,54,50,45,88,51,25,28.42,28.33,10,1,11,0.00
2013-5-11,97,79,61,50,44,33,55,33,12,28.42,28.33,11,1,11,0.00
2013-5-12,100,83,67,50,42,31,43,26,10,28.42,28.29,11,1,13,0.00
2013-5-13,101,84,67,47,38,29,36,22,9,28.35,28.26,13,1,13,0.00
2013-5-14,86,73,62,50,42,32,63,34,16,28.32,28.24,11,1,12,0.00
2013-5-15,81,66,54,54,50,44,78,58,39,28.35,28.26,12,1,12,0.00
2013-5-16,76,63,51,54,52,48,91,70,43,28.30,28.20,13,1,13,0.00
2013-5-17,75,63,52,54,52,48,94,70,45,28.32,28.23,12,1,12,0.00
2013-5-18,82,67,50,54,46,26,89,53,20,28.36,28.28,19,1,21,0.00
2013-5-19,88,73,54,54,35,24,40,26,13,28.33,28.20,17,2,17,0.00
2013-5-20,95,76,60,48,33,23,38,23,8,28.30,28.21,19,2,20,0.00
2013-5-21,88,73,60,54,47,36,70,41,27,28.27,28.15,11,1,11,0.00
2013-5-22,78,65,52,54,51,41,95,65,39,28.19,28.09,12,1,12,0.00
2013-5-23,73,62,51,52,44,29,78,53,35,28.27,28.16,11,1,12,0.00
2013-5-24,76,62,48,51,46,38,76,57,37,28.31,28.24,11,1,11,0.00
2013-5-25,76,61,48,50,48,44,88,64,34,28.33,28.28,12,1,13,0.00
2013-5-26,76,63,49,54,49,44,84,62,40,28.36,28.30,13,1,13,0.00
2013-5-27,84,68,53,54,43,26,86,47,17,28.33,28.19,20,2,21,0.00
2013-5-28,78,69,61,50,47,43,63,46,30,28.24,28.12,22,5,24,0.00
2013-5-29,91,74,58,49,43,31,58,36,16,28.19,28.06,21,3,23,0.00
2013-5-30,91,75,59,57,48,38,62,40,24,28.22,28.13,19,1,19,0.00
2013-5-31,89,74,57,58,50,40,65,45,26,28.25,28.15,12,1,13,0.00
2013-6-1,103,82,64,57,46,24,68,36,8,28.22,28.09,11,1,12,0.00
2013-6-2,87,70,58,61,57,54,90,67,38,28.16,28.08,14,2,14,0.00
2013-6-3,81,66,56,56,55,54,95,71,41,28.23,28.14,13,2,14,0.00
2013-6-4,80,66,55,56,54,52,95,70,39,28.30,28.22,12,1,12,0.00
2013-6-5,86,67,52,56,53,50,93,67,35,28.33,28.22,12,1,12,0.00
2013-6-6,86,68,55,58,55,50,89,66,37,28.29,28.18,13,1,13,0.00
2013-6-7,90,71,54,60,56,53,93,64,35,28.25,28.10,11,1,11,0.00
2013-6-8,88,69,55,60,57,54,95,68,35,28.24,28.14,13,1,13,0.00
2013-6-9,86,67,53,59,56,51,98,71,33,28.26,28.18,11,1,11,0.00
2013-6-10,81,66,54,54,53,50,95,66,35,28.29,28.22,12,1,12,0.00
2013-6-11,92,72,55,56,51,42,87,53,23,28.30,28.22,11,1,13,0.00
2013-6-12,84,69,58,59,55,49,84,61,40,28.33,28.26,12,2,13,0.00
2013-6-13,88,71,54,58,54,45,96,61,30,28.34,28.22,13,1,13,0.00
2013-6-14,85,70,56,56,48,39,76,47,22,28.26,28.17,12,1,13,0.00
2013-6-15,82,66,51,55,52,46,97,64,29,28.31,28.22,11,1,13,0.00
2013-6-16,88,70,52,54,51,44,85,54,30,28.36,28.27,11,1,11,0.00
2013-6-17,92,77,60,54,45,38,46,33,21,28.32,28.21,12,1,13,0.00
2013-6-18,87,74,60,54,46,36,65,38,24,28.25,28.16,11,1,12,0.00
2013-6-19,88,72,57,52,34,16,67,30,8,28.23,28.13,23,3,23,0.00
2013-6-20,88,73,54,53,35,21,36,25,14,28.21,28.14,13,1,13,0.00
2013-6-21,87,74,58,54,42,28,53,33,18,28.23,28.17,12,1,12,0.00
2013-6-22,87,72,58,56,50,42,67,48,34,28.25,28.15,12,1,12,0.00
2013-6-23,79,66,57,56,54,50,83,65,43,28.22,28.13,13,1,14,0.00
2013-6-24,72,63,56,57,55,54,94,78,59,28.29,28.17,10,1,10,0.00
2013-6-25,86,70,54,60,57,53,94,67,43,28.33,28.25,9,1,10,0.00
2013-6-26,95,79,64,62,58,56,78,52,30,28.33,28.27,11,1,11,0.00
2013-6-27,99,84,69,60,57,54,61,43,24,28.38,28.33,10,1,12,0.00
2013-6-28,101,85,70,60,57,53,62,41,24,28.37,28.24,11,1,11,0.00
2013-6-29,107,89,72,59,55,48,58,34,16,28.26,28.13,11,1,11,0.00
2013-6-30,106,88,75,62,54,45,58,34,15,28.20,28.10,10,1,10,0.00
2013-7-1,98,82,68,62,56,47,71,45,20,28.26,28.17,11,1,11,0.00
2013-7-2,96,82,70,60,55,50,58,42,22,28.32,28.25,12,1,13,0.00
2013-7-3,97,79,67,62,56,52,67,48,25,28.27,28.15,10,1,10,0.00
2013-7-4,97,80,65,60,55,46,73,46,22,28.20,28.10,11,1,12,0.00
2013-7-5,89,75,63,60,57,54,78,57,31,28.20,28.10,13,1,13,0.00
2013-7-6,94,76,63,62,59,55,86,59,28,28.18,28.09,14,1,15,0.00
2013-7-7,99,79,60,61,54,38,90,50,13,28.23,28.13,11,1,11,0.00
2013-7-8,104,83,65,56,47,33,66,34,9,28.31,28.22,12,1,12,0.00
2013-7-9,102,86,71,56,44,35,43,24,12,28.34,28.29,10,1,10,0.00
2013-7-10,87,77,70,60,54,42,60,46,35,28.34,28.25,11,0,12,0.00
2013-7-11,79,72,65,63,60,54,81,66,48,28.33,28.25,9,1,9,0.01
2013-7-12,91,76,64,64,59,53,87,60,30,28.29,28.21,11,1,11,0.00
2013-7-13,98,79,64,56,52,40,63,43,14,28.31,28.20,12,1,12,0.00
2013-7-14,100,81,64,56,52,46,70,40,20,28.29,28.17,11,1,11,0.00
2013-7-15,97,79,65,56,49,37,68,39,14,28.24,28.15,10,1,10,0.00
2013-7-16,93,75,57,50,41,31,67,35,12,28.34,28.22,9,0,9,0.00
2013-7-17,96,78,59,43,37,23,41,26,8,28.39,28.30,9,1,9,0.00
2013-7-18,96,80,64,53,42,31,47,27,15,28.35,28.21,9,1,9,0.00
2013-7-19,96,79,64,54,49,39,60,37,22,28.26,28.17,9,1,9,0.00
2013-7-20,92,75,62,65,59,54,82,59,39,28.25,28.13,9,1,9,0.00
2013-7-21,81,72,66,63,60,57,81,67,48,28.31,28.18,8,1,9,0.00
2013-7-22,89,77,66,64,61,58,91,62,37,28.34,28.26,9,1,9,0.01
2013-7-23,92,77,64,61,58,53,81,56,33,28.37,28.27,9,1,9,0.00
2013-7-24,96,77,63,61,56,53,74,51,27,28.35,28.23,9,1,9,0.00
2013-7-25,95,76,62,59,57,54,79,55,30,28.37,28.26,9,1,9,0.00
2013-7-26,91,77,68,63,59,56,71,56,37,28.43,28.33,8,1,9,0.00
2013-7-27,93,78,66,61,59,57,76,55,33,28.37,28.22,9,1,9,0.00
2013-7-28,87,72,61,60,56,46,85,61,27,28.27,28.19,9,1,9,0.00
2013-7-29,87,70,55,59,54,49,96,62,28,28.38,28.26,9,1,9,0.00
2013-7-30,89,71,58,57,53,46,86,57,26,28.45,28.35,9,1,9,0.00
2013-7-31,85,69,55,57,53,47,82,60,38,28.43,28.32,9,1,9,0.00
2013-8-1,88,69,53,56,54,50,91,62,33,28.37,28.23,12,1,12,0.00
2013-8-2,88,71,56,56,53,50,85,58,28,28.32,28.24,9,1,9,0.00
2013-8-3,90,71,56,57,53,47,83,58,26,28.34,28.26,14,1,14,0.00
2013-8-4,91,73,57,54,49,38,81,48,19,28.35,28.27,11,1,11,0.00
2013-8-5,93,75,58,50,41,31,60,34,12,28.35,28.26,11,1,11,0.00
2013-8-6,87,71,55,52,45,38,66,42,18,28.38,28.30,12,1,12,0.00
2013-8-7,88,67,55,53,47,43,68,53,26,28.40,28.31,12,0,12,0.00
2013-8-8,86,71,57,53,49,44,75,50,26,28.35,28.25,13,1,13,0.00
2013-8-9,86,70,56,52,46,37,71,47,18,28.32,28.25,12,1,12,0.00
2013-8-10,85,69,55,56,50,41,71,52,34,28.36,28.29,14,1,14,0.00
2013-8-11,89,72,56,55,52,47,79,53,30,28.33,28.24,8,1,12,0.00
2013-8-12,92,74,58,56,52,45,69,50,29,28.32,28.23,11,1,11,0.00
2013-8-13,96,76,60,56,53,47,77,48,24,28.32,28.23,7,1,10,0.00
2013-8-14,102,82,64,54,46,37,57,32,13,28.28,28.19,9,1,9,0.00
2013-8-15,98,80,65,55,48,37,61,35,15,28.31,28.24,12,1,12,0.00
2013-8-16,97,81,67,55,49,43,55,34,19,28.33,28.26,10,1,10,0.00
2013-8-17,99,82,66,52,46,37,44,31,14,28.32,28.18,12,1,12,0.00
2013-8-18,98,81,66,57,48,41,60,34,18,28.28,28.16,11,1,11,0.00
2013-8-19,96,81,69,60,56,49,65,45,28,28.27,28.21,15,1,15,0.00
2013-8-20,96,78,62,56,52,40,78,46,15,28.28,28.20,10,1,10,0.00
2013-8-21,98,79,62,54,45,26,71,38,8,28.30,28.20,10,1,10,0.00
2013-8-22,100,82,66,49,43,32,49,29,10,28.30,28.18,12,1,12,0.00
2013-8-23,97,79,64,47,40,31,46,27,10,28.25,28.12,10,1,10,0.00
2013-8-24,95,77,61,45,38,29,41,27,10,28.25,28.13,13,1,13,0.00
2013-8-25,95,77,62,56,40,31,36,28,14,28.30,28.21,13,1,13,0.00
2013-8-26,94,79,65,61,48,35,41,34,27,28.32,28.20,11,1,11,0.00
2013-8-27,94,85,75,62,58,54,51,40,34,28.21,28.14,9,1,12,0.00
2013-8-28,97,82,69,61,57,52,68,45,25,28.29,28.18,11,0,11,0.00
2013-8-29,103,85,70,57,52,47,57,36,19,28.34,28.25,8,0,8,0.00
2013-8-30,95,83,73,66,59,48,65,44,34,28.37,28.29,12,1,12,0.00
2013-8-31,93,82,74,67,66,64,73,59,41,28.35,28.25,10,1,10,0.00
2013-9-1,93,80,71,67,65,63,83,62,41,28.32,28.22,10,1,10,0.00
2013-9-2,96,81,69,65,62,54,81,56,30,28.30,28.19,11,1,11,0.00
2013-9-3,99,83,70,61,57,54,68,45,25,28.29,28.21,10,1,11,0.00
2013-9-4,102,84,71,57,54,50,57,39,19,28.32,28.21,10,0,10,0.00
2013-9-5,102,85,70,56,51,46,50,33,19,28.29,28.20,10,0,10,0.00
2013-9-6,103,85,70,52,48,44,45,30,15,28.28,28.17,11,1,11,0.00
2013-9-7,101,83,69,54,44,33,40,27,15,28.28,28.17,13,1,13,0.00
2013-9-8,97,80,68,50,44,39,48,29,16,28.24,28.12,10,1,10,0.00
2013-9-9,92,77,66,54,50,43,66,40,22,28.19,28.09,10,1,10,0.00
2013-9-10,86,71,58,56,50,43,85,53,24,28.30,28.17,11,1,11,0.00
2013-9-11,85,70,57,57,53,48,79,58,31,28.35,28.27,13,1,14,0.00
2013-9-12,94,74,59,56,48,37,79,45,16,28.31,28.20,9,1,11,0.00
2013-9-13,95,79,65,53,46,40,43,33,22,28.23,28.05,10,1,10,0.00
2013-9-14,100,82,68,53,49,45,47,34,19,28.12,28.02,9,0,9,0.00
2013-9-15,100,82,68,52,47,40,44,32,14,28.17,28.08,10,1,10,0.00
2013-9-16,98,80,66,48,42,38,46,29,15,28.22,28.11,10,1,10,0.00
2013-9-17,87,72,59,53,45,39,55,40,20,28.19,28.09,10,1,11,0.00
2013-9-18,84,70,57,57,49,40,76,50,29,28.17,28.09,10,1,11,0.00
2013-9-19,93,72,57,59,53,48,81,57,24,28.19,28.09,10,1,10,0.00
2013-9-20,77,64,54,61,57,53,98,81,56,28.25,28.17,12,2,14,0.00
2013-9-21,78,64,57,57,55,51,93,75,42,28.28,28.14,12,1,12,0.00
2013-9-22,78,64,54,54,43,36,89,50,22,28.24,28.14,16,2,16,0.00
2013-9-23,93,74,60,42,38,33,47,30,15,28.28,28.20,10,1,10,0.00
2013-9-24,90,73,59,46,37,29,47,29,12,28.31,28.20,11,1,13,0.00
2013-9-25,76,65,56,55,50,43,77,60,45,28.21,28.05,12,1,12,0.00
2013-9-26,71,61,55,46,35,26,61,39,19,28.27,28.08,20,3,21,0.00
2013-9-27,78,65,53,32,27,23,43,26,13,28.39,28.26,16,2,16,0.00
2013-9-28,88,68,54,35,27,23,40,22,9,28.43,28.32,8,0,8,0.00
2013-9-29,90,70,53,36,28,21,34,22,9,28.44,28.32,9,0,9,0.00
2013-9-30,89,73,57,43,37,31,42,29,15,28.37,28.21,16,1,16,0.00
2013-10-1,83,69,56,56,45,36,80,44,29,28.30,28.22,11,1,11,0.00
2013-10-2,78,64,54,56,53,50,93,73,39,28.33,28.21,11,1,11,0.00
2013-10-3,77,62,50,55,50,42,96,70,37,28.29,28.16,9,1,9,0.00
2013-10-4,75,68,56,42,20,14,59,16,10,28.46,28.25,30,6,30,0.08
2013-10-5,79,72,66,24,20,16,19,14,10,28.56,28.45,33,4,33,0.00
2013-10-6,88,74,59,24,19,14,21,13,6,28.49,28.35,13,2,13,0.00
2013-10-7,84,68,58,37,24,16,41,20,9,28.36,28.25,11,0,11,0.00
2013-10-8,74,60,50,53,40,29,84,50,32,28.28,28.15,10,1,10,0.00
2013-10-9,58,53,47,51,47,40,91,79,57,28.18,28.04,12,1,14,0.06
2013-10-10,66,52,41,47,44,39,92,75,46,28.37,28.14,10,1,10,0.00
2013-10-11,75,58,45,48,44,40,90,64,29,28.39,28.29,10,0,10,0.00
2013-10-12,77,61,48,46,41,37,71,53,26,28.34,28.22,10,0,10,0.00
2013-10-13,70,57,47,50,47,41,94,73,43,28.38,28.27,10,0,10,0.00
2013-10-14,76,64,48,48,36,29,86,41,19,28.42,28.30,18,2,20,0.00
2013-10-15,78,67,58,32,29,24,33,24,16,28.38,28.27,20,2,20,0.00
2013-10-16,78,66,56,28,24,23,32,21,13,28.47,28.36,18,2,18,0.00
2013-10-17,83,64,51,33,28,23,36,26,14,28.42,28.27,9,1,9,0.00
2013-10-18,85,68,54,40,30,21,41,27,10,28.40,28.30,14,1,14,0.00
2013-10-19,89,70,56,35,26,16,31,20,7,28.41,28.31,9,0,9,0.00
2013-10-20,84,66,55,49,34,24,63,33,14,28.36,28.24,9,1,9,0.00
2013-10-21,85,66,52,49,39,31,55,39,19,28.35,28.24,10,1,11,0.00
2013-10-22,86,68,55,50,34,21,71,32,9,28.37,28.25,9,0,9,0.00
2013-10-23,76,61,51,53,43,28,94,54,35,28.33,28.21,10,1,10,0.00
2013-10-24,74,59,52,53,51,49,95,79,47,28.40,28.29,8,1,8,0.00
2013-10-25,82,61,44,52,47,36,98,66,28,28.46,28.36,7,0,7,0.00
2013-10-26,86,69,55,45,33,26,44,28,12,28.46,28.33,7,0,7,0.00
2013-10-27,78,64,54,53,38,26,91,43,17,28.36,28.14,11,1,11,0.00
2013-10-28,61,54,51,52,45,36,89,72,42,28.27,28.11,17,2,18,0.00
2013-10-29,60,52,44,47,44,40,93,76,49,28.35,28.25,7,0,8,0.02
2013-10-30,69,54,44,43,38,31,86,58,25,28.42,28.32,11,1,11,0.00
2013-10-31,73,59,46,36,30,24,60,36,19,28.46,28.36,14,1,15,0.00
2013-11-1,78,66,57,31,27,24,29,23,16,28.49,28.34,15,2,15,0.00
2013-11-2,79,64,53,37,31,26,45,30,16,28.40,28.22,13,0,13,0.00
2013-11-3,70,56,45,50,41,29,90,60,41,28.27,28.16,11,1,11,0.00
2013-11-4,68,55,46,47,38,28,91,56,32,28.33,28.15,8,1,8,0.01
2013-11-5,50,46,44,33,32,29,64,57,45,28.34,28.32,5,1,5,0.00